Santa Rita Foothills, Arizona
Current Conditions -  °F | °C
As of 5:53 AM on Friday 28 Nov 2014 (Local Time) from KTUS Reporting Station
Clear Clear  
Wind Chill: 50°   Ceiling: Unl
Heat Index: 50°   Visibility: 10mi
Dew Point: 21°   Wind: 5mph
Humidity: 32%   Direction: 140°SE
Pressure: 30.12"   Gusts: NA
Location:  31.9353°N, 110.697°W
Report Text: KTUS 281253Z 14004KT 10SM CLR 10/M06 A3012 RMK AO2 SLP175 T01001061
Loading
Personal Weather Stations






























Interactive Weather Map New forecast layout! Learn more

10-Day Weather Forecast

Advertisements
Track Severe Weather on mobile